createdAt,value
2022-12-29T00:00:01.455Z,0.00
2022-12-29T00:01:01.454Z,0.00
2022-12-29T00:02:01.435Z,0.00
2022-12-29T00:03:01.600Z,0.00
2022-12-29T00:04:01.503Z,0.00
2022-12-29T00:05:01.498Z,0.00
2022-12-29T00:06:01.495Z,0.00
2022-12-29T00:07:01.519Z,0.00
2022-12-29T00:08:01.523Z,0.00
2022-12-29T00:09:01.568Z,0.00
2022-12-29T00:10:01.587Z,0.00
2022-12-29T00:11:01.589Z,0.00
2022-12-29T00:12:01.623Z,0.00
2022-12-29T00:13:01.672Z,0.00
2022-12-29T00:14:01.651Z,0.00
2022-12-29T00:15:01.655Z,0.00
2022-12-29T00:16:01.701Z,0.00
2022-12-29T00:17:01.664Z,0.00
2022-12-29T00:18:01.705Z,0.00
2022-12-29T00:19:01.722Z,0.00
2022-12-29T00:20:01.748Z,0.00
2022-12-29T00:21:01.766Z,0.00
2022-12-29T00:22:01.749Z,0.00
2022-12-29T00:23:01.783Z,0.00
2022-12-29T00:24:01.831Z,0.00
2022-12-29T00:25:01.935Z,0.00
2022-12-29T00:26:01.825Z,0.00
2022-12-29T00:27:01.847Z,0.00
2022-12-29T00:28:07.335Z,0.00
2022-12-29T00:29:01.863Z,0.00
2022-12-29T00:30:01.863Z,0.00
2022-12-29T00:31:01.969Z,0.00
2022-12-29T00:32:01.910Z,0.00
2022-12-29T00:33:01.893Z,0.00
2022-12-29T00:34:01.897Z,0.00
2022-12-29T00:35:01.919Z,0.00
2022-12-29T00:36:01.937Z,0.00
2022-12-29T00:37:01.966Z,0.00
2022-12-29T00:38:02.025Z,0.00
2022-12-29T00:39:01.993Z,0.00
2022-12-29T00:40:02.028Z,0.00
2022-12-29T00:41:02.068Z,0.00
2022-12-29T00:42:02.072Z,0.00
2022-12-29T00:43:02.089Z,0.00
2022-12-29T00:44:02.116Z,0.00
2022-12-29T00:45:02.129Z,0.00
2022-12-29T00:46:02.146Z,0.00
2022-12-29T00:47:02.265Z,0.00
2022-12-29T00:48:02.147Z,0.00
2022-12-29T00:49:02.173Z,0.00
2022-12-29T00:50:02.231Z,0.00
2022-12-29T00:51:02.188Z,0.00
2022-12-29T00:52:02.197Z,0.00
2022-12-29T00:53:02.227Z,0.00
2022-12-29T00:54:02.265Z,0.00
2022-12-29T00:55:02.275Z,0.00
2022-12-29T00:56:02.290Z,0.00
2022-12-29T00:57:02.362Z,0.00
2022-12-29T00:58:02.322Z,0.00
2022-12-29T00:59:02.648Z,0.00
2022-12-29T01:00:02.401Z,0.00
2022-12-29T01:01:02.434Z,0.00
2022-12-29T01:02:02.620Z,0.00
2022-12-29T01:03:02.564Z,0.00
2022-12-29T01:04:04.508Z,0.00
2022-12-29T01:05:02.407Z,0.00
2022-12-29T01:06:02.417Z,0.00
2022-12-29T01:07:02.415Z,0.00
2022-12-29T01:08:02.447Z,0.00
2022-12-29T01:09:02.516Z,0.00
2022-12-29T01:10:02.474Z,0.00
2022-12-29T01:11:02.506Z,0.00
2022-12-29T01:12:02.764Z,0.00
2022-12-29T01:13:02.565Z,0.00
2022-12-29T01:14:02.806Z,0.00
2022-12-29T01:15:02.575Z,0.00
2022-12-29T01:16:02.700Z,0.00
2022-12-29T01:17:02.605Z,0.00
2022-12-29T01:18:02.609Z,0.00
2022-12-29T01:19:02.683Z,0.00
2022-12-29T01:20:02.645Z,0.00
2022-12-29T01:21:02.663Z,0.00
2022-12-29T01:22:02.692Z,0.00
2022-12-29T01:23:02.712Z,0.00
2022-12-29T01:24:02.725Z,0.00
2022-12-29T01:25:02.724Z,0.00
2022-12-29T01:26:02.741Z,0.00
2022-12-29T01:27:02.767Z,0.00
2022-12-29T01:28:02.800Z,0.00
2022-12-29T01:29:02.870Z,0.00
2022-12-29T01:30:02.827Z,0.00
2022-12-29T01:31:02.851Z,0.00
2022-12-29T01:32:02.879Z,0.00
2022-12-29T01:33:02.851Z,0.00
2022-12-29T01:34:02.855Z,0.00
2022-12-29T01:35:02.860Z,0.00
2022-12-29T01:36:02.897Z,0.00
2022-12-29T01:37:02.918Z,0.00
2022-12-29T01:38:02.938Z,0.00
2022-12-29T01:39:02.976Z,0.00
2022-12-29T01:40:02.988Z,0.00
2022-12-29T01:41:03.030Z,0.00
2022-12-29T01:42:03.025Z,0.00
2022-12-29T01:43:03.057Z,0.00
2022-12-29T01:44:03.037Z,0.00
2022-12-29T01:45:03.088Z,0.00
2022-12-29T01:46:03.137Z,0.00
2022-12-29T01:47:03.076Z,0.00
2022-12-29T01:48:03.119Z,0.00
2022-12-29T01:49:03.080Z,0.00
2022-12-29T01:50:03.124Z,0.00
2022-12-29T01:51:03.144Z,0.00
2022-12-29T01:52:03.172Z,0.00
2022-12-29T01:53:03.190Z,0.00
2022-12-29T01:54:03.223Z,0.00
2022-12-29T01:55:03.271Z,0.00
2022-12-29T01:56:03.235Z,0.00
2022-12-29T01:57:03.261Z,0.00
2022-12-29T01:58:03.324Z,0.00
2022-12-29T01:59:03.272Z,0.00
2022-12-29T02:00:03.293Z,0.00
2022-12-29T02:01:03.458Z,0.00
2022-12-29T02:02:03.402Z,0.00
2022-12-29T02:03:03.383Z,0.00
2022-12-29T02:04:03.290Z,0.00
2022-12-29T02:05:04.799Z,0.00
2022-12-29T02:06:03.306Z,0.00
2022-12-29T02:07:03.337Z,0.00
2022-12-29T02:08:03.355Z,0.00
2022-12-29T02:09:03.369Z,0.00
2022-12-29T02:10:03.395Z,0.00
2022-12-29T02:11:03.433Z,0.00
2022-12-29T02:12:03.664Z,0.00
2022-12-29T02:13:03.450Z,0.00
2022-12-29T02:14:03.964Z,0.00
2022-12-29T02:15:03.494Z,0.00
2022-12-29T02:16:03.595Z,0.00
2022-12-29T02:17:03.556Z,0.00
2022-12-29T02:18:03.523Z,0.00
2022-12-29T02:19:03.558Z,0.00
2022-12-29T02:20:03.566Z,0.00
2022-12-29T02:21:03.552Z,0.00
2022-12-29T02:22:03.584Z,0.00
2022-12-29T02:23:03.557Z,0.00
2022-12-29T02:24:03.592Z,0.00
2022-12-29T02:25:03.619Z,0.00
2022-12-29T02:26:03.627Z,0.00
2022-12-29T02:27:03.678Z,0.00
2022-12-29T02:28:03.683Z,0.00
2022-12-29T02:29:03.712Z,0.00
2022-12-29T02:30:03.734Z,0.00
2022-12-29T02:31:03.769Z,0.00
2022-12-29T02:32:03.784Z,0.00
2022-12-29T02:33:03.796Z,0.00
2022-12-29T02:34:03.788Z,0.00
2022-12-29T02:35:03.782Z,0.00
2022-12-29T02:36:03.750Z,0.00
2022-12-29T02:37:03.760Z,0.00
2022-12-29T02:38:03.784Z,0.00
2022-12-29T02:39:03.804Z,0.00
2022-12-29T02:40:03.836Z,0.00
2022-12-29T02:41:03.861Z,0.00
2022-12-29T02:42:03.893Z,0.00
2022-12-29T02:43:03.868Z,0.00
2022-12-29T02:44:03.877Z,0.00
2022-12-29T02:45:03.835Z,0.00
2022-12-29T02:46:03.993Z,0.00
2022-12-29T02:47:03.871Z,0.00
2022-12-29T02:48:03.896Z,0.00
2022-12-29T02:49:03.969Z,0.00
2022-12-29T02:50:03.948Z,0.00
2022-12-29T02:51:04.006Z,0.00
2022-12-29T02:52:03.970Z,0.00
2022-12-29T02:53:04.005Z,0.00
2022-12-29T02:54:04.022Z,0.00
2022-12-29T02:55:04.081Z,0.00
2022-12-29T02:56:04.055Z,0.00
2022-12-29T02:57:04.084Z,0.00
2022-12-29T02:58:04.055Z,0.00
2022-12-29T02:59:04.097Z,0.00
2022-12-29T03:00:04.061Z,0.00
2022-12-29T03:01:04.190Z,0.00
2022-12-29T03:02:04.315Z,0.00
2022-12-29T03:03:04.293Z,0.00
2022-12-29T03:04:04.130Z,0.00
2022-12-29T03:05:04.194Z,0.00
2022-12-29T03:06:04.151Z,0.00
2022-12-29T03:07:04.175Z,0.00
2022-12-29T03:08:04.174Z,0.00
2022-12-29T03:09:04.189Z,0.00
2022-12-29T03:10:04.224Z,0.00
2022-12-29T03:11:04.249Z,0.00
2022-12-29T03:12:04.237Z,0.00
2022-12-29T03:13:04.266Z,0.00
2022-12-29T03:14:04.275Z,0.00
2022-12-29T03:15:04.307Z,0.00
2022-12-29T03:16:04.453Z,0.00
2022-12-29T03:17:04.390Z,0.00
2022-12-29T03:18:04.386Z,0.00
2022-12-29T03:19:04.402Z,0.00
2022-12-29T03:20:04.445Z,0.00
2022-12-29T03:21:04.473Z,0.00
2022-12-29T03:22:04.473Z,0.00
2022-12-29T03:23:04.501Z,0.00
2022-12-29T03:24:04.514Z,0.00
2022-12-29T03:25:04.535Z,0.00
2022-12-29T03:26:04.550Z,0.00
2022-12-29T03:27:04.590Z,0.00
2022-12-29T03:28:04.616Z,0.00
2022-12-29T03:29:04.643Z,0.00
2022-12-29T03:30:04.658Z,0.00
2022-12-29T03:31:04.731Z,0.00
2022-12-29T03:32:04.797Z,0.00
2022-12-29T03:33:04.720Z,0.00
2022-12-29T03:34:04.744Z,0.00
2022-12-29T03:35:04.720Z,0.00
2022-12-29T03:36:04.748Z,0.00
2022-12-29T03:37:04.751Z,0.00
2022-12-29T03:38:04.714Z,0.00
2022-12-29T03:39:04.709Z,0.00
2022-12-29T03:40:04.735Z,0.00
2022-12-29T03:41:04.772Z,0.00
2022-12-29T03:42:04.786Z,0.00
2022-12-29T03:43:04.788Z,0.00
2022-12-29T03:44:04.829Z,0.00
2022-12-29T03:45:04.842Z,0.00
2022-12-29T03:46:04.929Z,0.00
2022-12-29T03:47:04.898Z,0.00
2022-12-29T03:48:04.913Z,0.00
2022-12-29T03:49:04.933Z,0.00
2022-12-29T03:50:04.981Z,0.00
2022-12-29T03:51:04.948Z,0.00
2022-12-29T03:52:04.969Z,0.00
2022-12-29T03:53:05.009Z,0.00
2022-12-29T03:54:05.019Z,0.00
2022-12-29T03:55:05.066Z,0.00
2022-12-29T03:56:05.048Z,0.00
2022-12-29T03:57:05.028Z,0.00
2022-12-29T03:58:05.036Z,0.00
2022-12-29T03:59:05.054Z,0.00
2022-12-29T04:00:05.080Z,0.00
2022-12-29T04:01:05.165Z,0.00
2022-12-29T04:02:05.342Z,0.00
2022-12-29T04:03:05.276Z,0.00
2022-12-29T04:04:05.141Z,0.00
2022-12-29T04:05:05.173Z,0.00
2022-12-29T04:06:05.204Z,0.00
2022-12-29T04:07:05.216Z,0.00
2022-12-29T04:08:05.253Z,0.00
2022-12-29T04:09:05.295Z,0.00
2022-12-29T04:10:05.302Z,0.00
2022-12-29T04:11:05.330Z,0.00
2022-12-29T04:12:05.363Z,0.00
2022-12-29T04:13:05.592Z,0.00
2022-12-29T04:14:05.388Z,0.00
2022-12-29T04:15:05.421Z,0.00
2022-12-29T04:16:05.532Z,0.00
2022-12-29T04:17:05.457Z,0.00
2022-12-29T04:18:05.472Z,0.00
2022-12-29T04:19:06.281Z,0.00
2022-12-29T04:20:05.520Z,0.00
2022-12-29T04:21:05.554Z,0.00
2022-12-29T04:22:05.594Z,0.00
2022-12-29T04:23:05.598Z,0.00
2022-12-29T04:24:05.614Z,0.00
2022-12-29T04:25:05.688Z,0.00
2022-12-29T04:26:05.657Z,0.00
2022-12-29T04:27:05.684Z,0.00
2022-12-29T04:28:05.696Z,0.00
2022-12-29T04:29:05.719Z,0.00
2022-12-29T04:30:05.766Z,0.00
2022-12-29T04:31:05.790Z,0.00
2022-12-29T04:32:05.745Z,0.00
2022-12-29T04:33:05.764Z,0.00
2022-12-29T04:34:05.778Z,0.00
2022-12-29T04:35:05.795Z,0.00
2022-12-29T04:36:05.812Z,0.00
2022-12-29T04:37:05.853Z,0.00
2022-12-29T04:38:05.819Z,0.00
2022-12-29T04:39:05.845Z,0.00
2022-12-29T04:40:05.859Z,0.00
2022-12-29T04:41:05.942Z,0.00
2022-12-29T04:42:05.900Z,0.00
2022-12-29T04:43:05.928Z,0.00
2022-12-29T04:44:05.935Z,0.00
2022-12-29T04:45:05.968Z,0.00
2022-12-29T04:46:06.053Z,0.00
2022-12-29T04:47:06.008Z,0.00
2022-12-29T04:48:06.034Z,0.00
2022-12-29T04:49:06.051Z,0.00
2022-12-29T04:50:06.088Z,0.00
2022-12-29T04:51:06.102Z,0.00
2022-12-29T04:52:06.143Z,0.00
2022-12-29T04:53:06.174Z,0.00
2022-12-29T04:54:06.153Z,0.00
2022-12-29T04:55:06.185Z,0.00
2022-12-29T04:56:06.150Z,0.00
2022-12-29T04:57:06.201Z,0.00
2022-12-29T04:58:06.212Z,0.00
2022-12-29T04:59:06.411Z,0.00
2022-12-29T05:00:06.210Z,0.00
2022-12-29T05:01:06.248Z,0.00
2022-12-29T05:02:06.423Z,0.00
2022-12-29T05:03:06.590Z,0.00
2022-12-29T05:04:06.210Z,0.00
2022-12-29T05:05:06.231Z,0.00
2022-12-29T05:06:06.257Z,0.00
2022-12-29T05:07:06.300Z,0.00
2022-12-29T05:08:06.335Z,0.00
2022-12-29T05:09:06.321Z,0.00
2022-12-29T05:10:06.297Z,0.00
2022-12-29T05:11:06.317Z,0.00
2022-12-29T05:12:06.324Z,0.00
2022-12-29T05:13:06.374Z,0.00
2022-12-29T05:14:06.401Z,0.00
2022-12-29T05:15:06.407Z,0.00
2022-12-29T05:16:06.462Z,0.00
2022-12-29T05:17:06.440Z,0.00
2022-12-29T05:18:06.446Z,0.00
2022-12-29T05:19:07.290Z,0.00
2022-12-29T05:20:06.508Z,0.00
2022-12-29T05:21:06.519Z,0.00
2022-12-29T05:22:06.564Z,0.00
2022-12-29T05:23:06.562Z,0.00
2022-12-29T05:24:06.579Z,0.00
2022-12-29T05:25:06.607Z,0.00
2022-12-29T05:26:06.639Z,0.00
2022-12-29T05:27:06.626Z,0.00
2022-12-29T05:28:06.654Z,0.00
2022-12-29T05:29:06.715Z,0.00
2022-12-29T05:30:06.698Z,0.00
2022-12-29T05:31:06.823Z,0.00
2022-12-29T05:32:06.738Z,0.00
2022-12-29T05:33:06.732Z,0.00
2022-12-29T05:34:06.752Z,0.00
2022-12-29T05:35:06.763Z,0.00
2022-12-29T05:36:06.768Z,0.00
2022-12-29T05:37:06.774Z,0.00
2022-12-29T05:38:06.800Z,0.00
2022-12-29T05:39:06.825Z,0.00
2022-12-29T05:40:06.841Z,0.00
2022-12-29T05:41:06.895Z,0.00
2022-12-29T05:42:07.083Z,0.00
2022-12-29T05:43:06.868Z,0.00
2022-12-29T05:44:06.880Z,0.00
2022-12-29T05:45:06.936Z,0.00
2022-12-29T05:46:06.905Z,0.00
2022-12-29T05:47:06.966Z,0.00
2022-12-29T05:48:06.963Z,0.00
2022-12-29T05:49:06.975Z,0.00
2022-12-29T05:50:07.041Z,0.00
2022-12-29T05:51:07.026Z,0.00
2022-12-29T05:52:06.984Z,0.00
2022-12-29T05:53:07.000Z,0.00
2022-12-29T05:54:07.022Z,0.00
2022-12-29T05:55:07.043Z,0.00
2022-12-29T05:56:07.065Z,0.00
2022-12-29T05:57:07.065Z,0.00
2022-12-29T05:58:07.058Z,0.00
2022-12-29T05:59:07.079Z,0.00
2022-12-29T06:00:07.067Z,0.00
2022-12-29T06:02:33.219Z,0.00
2022-12-29T06:03:33.069Z,0.00
2022-12-29T06:04:32.953Z,0.00
2022-12-29T06:05:32.956Z,0.00
2022-12-29T06:06:32.965Z,0.00
2022-12-29T06:07:32.992Z,0.00
2022-12-29T06:08:32.991Z,0.00
2022-12-29T06:09:33.020Z,0.00
2022-12-29T06:10:33.045Z,0.00
2022-12-29T06:11:33.066Z,0.00
2022-12-29T06:12:33.104Z,0.00
2022-12-29T06:13:33.106Z,0.00
2022-12-29T06:14:33.123Z,0.00
2022-12-29T06:15:33.174Z,0.00
2022-12-29T06:16:33.200Z,0.00
2022-12-29T06:17:33.140Z,0.00
2022-12-29T06:18:33.187Z,0.00
2022-12-29T06:19:33.155Z,0.00
2022-12-29T06:20:33.189Z,0.00
2022-12-29T06:21:33.195Z,0.00
2022-12-29T06:22:33.246Z,0.00
2022-12-29T06:23:33.266Z,0.00
2022-12-29T06:24:33.272Z,0.00
2022-12-29T06:25:33.374Z,0.00
2022-12-29T06:26:33.317Z,0.00
2022-12-29T06:27:33.364Z,0.00
2022-12-29T06:28:33.370Z,0.00
2022-12-29T06:29:33.357Z,0.00
2022-12-29T06:30:33.386Z,0.00
2022-12-29T06:31:33.407Z,0.00
2022-12-29T06:32:33.420Z,0.00
2022-12-29T06:33:33.443Z,0.00
2022-12-29T06:34:33.508Z,0.00
2022-12-29T06:35:33.484Z,0.00
2022-12-29T06:36:33.502Z,0.00
2022-12-29T06:37:33.530Z,0.00
2022-12-29T06:38:33.520Z,0.00
2022-12-29T06:39:33.567Z,0.00
2022-12-29T06:40:33.523Z,0.00
2022-12-29T06:41:33.550Z,0.00
2022-12-29T06:42:33.584Z,0.00
2022-12-29T06:43:33.601Z,0.00
2022-12-29T06:44:33.605Z,0.00
2022-12-29T06:45:33.714Z,0.00
2022-12-29T06:46:33.630Z,0.00
2022-12-29T06:47:33.662Z,0.00
2022-12-29T06:48:33.676Z,0.00
2022-12-29T06:49:33.691Z,0.00
2022-12-29T06:50:33.719Z,0.00
2022-12-29T06:51:33.735Z,0.00
2022-12-29T06:52:33.809Z,0.00
2022-12-29T06:53:33.776Z,0.00
2022-12-29T06:54:33.804Z,0.00
2022-12-29T06:55:33.835Z,0.00
2022-12-29T06:56:33.860Z,0.00
2022-12-29T06:57:33.890Z,0.00
2022-12-29T06:58:33.929Z,0.00
2022-12-29T06:59:33.942Z,0.00
2022-12-29T07:00:33.942Z,0.00
2022-12-29T07:01:34.078Z,0.00
2022-12-29T07:02:34.069Z,0.00
2022-12-29T07:03:34.024Z,0.00
2022-12-29T07:04:33.987Z,0.00
2022-12-29T07:05:34.024Z,0.00
2022-12-29T07:06:34.078Z,0.00
2022-12-29T07:07:34.062Z,0.00
2022-12-29T07:08:34.097Z,0.00
2022-12-29T07:09:34.119Z,0.00
2022-12-29T07:10:34.150Z,0.00
2022-12-29T07:11:34.157Z,0.00
2022-12-29T07:12:34.242Z,0.00
2022-12-29T07:13:34.187Z,0.00
2022-12-29T07:14:40.727Z,0.00
2022-12-29T07:15:34.189Z,0.00
2022-12-29T07:16:34.346Z,0.00
2022-12-29T07:17:34.261Z,0.00
2022-12-29T07:18:34.245Z,0.00
2022-12-29T07:19:34.223Z,0.00
2022-12-29T07:20:34.221Z,0.00
2022-12-29T07:21:34.245Z,0.00
2022-12-29T07:22:34.308Z,0.00
2022-12-29T07:23:34.275Z,0.00
2022-12-29T07:24:34.303Z,0.00
2022-12-29T07:25:34.313Z,0.00
2022-12-29T07:26:36.488Z,0.00
2022-12-29T07:27:34.361Z,0.00
2022-12-29T07:28:34.391Z,0.00
2022-12-29T07:29:34.450Z,0.00
2022-12-29T07:30:34.459Z,0.00
2022-12-29T07:31:34.470Z,0.00
2022-12-29T07:32:34.458Z,0.00
2022-12-29T07:33:34.470Z,0.00
2022-12-29T07:34:34.462Z,0.00
2022-12-29T07:35:34.483Z,0.00
2022-12-29T07:36:35.019Z,0.00
2022-12-29T07:37:34.543Z,0.00
2022-12-29T07:38:34.606Z,0.00
2022-12-29T07:39:34.595Z,0.00
2022-12-29T07:40:34.630Z,0.00
2022-12-29T07:41:34.645Z,0.00
2022-12-29T07:42:34.674Z,0.00
2022-12-29T07:43:34.653Z,0.00
2022-12-29T07:44:34.686Z,0.00
2022-12-29T07:45:34.788Z,0.00
2022-12-29T07:46:53.709Z,0.00
2022-12-29T07:47:34.771Z,0.00
2022-12-29T07:48:34.745Z,5.62
2022-12-29T07:49:34.792Z,0.00
2022-12-29T07:50:34.817Z,0.00
2022-12-29T07:51:34.792Z,0.00
2022-12-29T07:52:34.823Z,0.00
2022-12-29T07:53:34.847Z,0.00
2022-12-29T07:54:34.900Z,0.00
2022-12-29T07:55:34.894Z,5.62
2022-12-29T07:56:34.856Z,5.62
2022-12-29T07:57:34.900Z,0.00
2022-12-29T07:58:34.935Z,0.00
2022-12-29T07:59:34.915Z,0.00
2022-12-29T08:00:34.927Z,0.00
2022-12-29T08:01:35.139Z,5.62
2022-12-29T08:02:35.002Z,5.62
2022-12-29T08:03:34.968Z,5.62
2022-12-29T08:04:34.985Z,5.62
2022-12-29T08:05:35.006Z,5.62
2022-12-29T08:06:35.029Z,5.62
2022-12-29T08:07:35.069Z,5.62
2022-12-29T08:08:35.086Z,5.62
2022-12-29T08:09:35.065Z,5.62
2022-12-29T08:10:35.124Z,5.62
2022-12-29T08:11:35.086Z,5.62
2022-12-29T08:12:35.111Z,5.62
2022-12-29T08:13:35.141Z,5.62
2022-12-29T08:14:35.140Z,5.62
2022-12-29T08:15:35.222Z,11.25
2022-12-29T08:16:35.229Z,11.25
2022-12-29T08:17:35.184Z,11.25
2022-12-29T08:18:35.198Z,11.25
2022-12-29T08:19:35.243Z,11.25
2022-12-29T08:20:36.470Z,11.25
2022-12-29T08:21:35.305Z,11.25
2022-12-29T08:22:35.279Z,11.25
2022-12-29T08:23:35.316Z,11.25
2022-12-29T08:24:35.342Z,11.25
2022-12-29T08:25:35.385Z,11.25
2022-12-29T08:26:35.405Z,11.25
2022-12-29T08:27:35.381Z,11.25
2022-12-29T08:28:35.393Z,11.25
2022-12-29T08:29:35.423Z,11.25
2022-12-29T08:30:35.472Z,11.25
2022-12-29T08:31:35.559Z,11.25
2022-12-29T08:32:35.499Z,11.25
2022-12-29T08:33:35.727Z,11.25
2022-12-29T08:34:35.572Z,16.88
2022-12-29T08:35:35.559Z,16.88
2022-12-29T08:36:35.647Z,16.88
2022-12-29T08:37:35.583Z,11.25
2022-12-29T08:38:35.625Z,11.25
2022-12-29T08:39:35.704Z,11.25
2022-12-29T08:40:35.665Z,11.25
2022-12-29T08:41:35.726Z,22.50
2022-12-29T08:42:35.718Z,22.50
2022-12-29T08:43:35.736Z,22.50
2022-12-29T08:44:35.803Z,28.12
2022-12-29T08:45:35.722Z,28.12
2022-12-29T08:46:35.810Z,28.12
2022-12-29T08:47:35.758Z,33.75
2022-12-29T08:48:35.789Z,33.75
2022-12-29T08:49:35.840Z,33.75
2022-12-29T08:50:35.822Z,33.75
2022-12-29T08:51:35.853Z,33.75
2022-12-29T08:52:35.881Z,33.75
2022-12-29T08:53:35.900Z,22.50
2022-12-29T08:54:35.943Z,28.12
2022-12-29T08:55:35.923Z,28.12
2022-12-29T08:56:35.959Z,28.12
2022-12-29T08:57:35.982Z,22.50
2022-12-29T08:58:36.054Z,22.50
2022-12-29T08:59:36.045Z,28.12
2022-12-29T09:00:36.013Z,33.75
2022-12-29T09:01:36.100Z,33.75
2022-12-29T09:02:36.236Z,22.50
2022-12-29T09:04:36.346Z,28.12
2022-12-29T09:05:36.079Z,33.75
2022-12-29T09:06:40.179Z,33.75
2022-12-29T09:07:36.119Z,28.12
2022-12-29T09:08:36.163Z,28.12
2022-12-29T09:09:36.204Z,33.75
2022-12-29T09:12:02.130Z,28.12
2022-12-29T09:13:02.142Z,22.50
2022-12-29T09:14:02.204Z,22.50
2022-12-29T09:15:02.453Z,16.88
2022-12-29T09:16:02.257Z,22.50
2022-12-29T09:17:02.239Z,16.88
2022-12-29T09:18:02.214Z,22.50
2022-12-29T09:19:02.283Z,33.75
2022-12-29T09:20:02.287Z,39.38
2022-12-29T09:21:02.267Z,39.38
2022-12-29T09:22:02.282Z,39.38
2022-12-29T09:23:02.320Z,39.38
2022-12-29T09:24:02.358Z,39.38
2022-12-29T09:25:02.396Z,39.38
2022-12-29T09:26:02.387Z,45.00
2022-12-29T09:27:02.413Z,39.38
2022-12-29T09:28:02.445Z,39.38
2022-12-29T09:29:02.473Z,39.38
2022-12-29T09:30:02.530Z,45.00
2022-12-29T09:31:02.576Z,50.62
2022-12-29T09:32:04.023Z,45.00
2022-12-29T09:33:02.544Z,45.00
2022-12-29T09:34:02.521Z,45.00
2022-12-29T09:35:02.501Z,45.00
2022-12-29T09:36:02.528Z,50.62
2022-12-29T09:37:02.520Z,50.62
2022-12-29T09:38:02.550Z,45.00
2022-12-29T09:39:02.584Z,39.38
2022-12-29T09:40:02.597Z,39.38
2022-12-29T09:41:02.577Z,56.25
2022-12-29T09:42:02.608Z,56.25
2022-12-29T09:43:02.580Z,50.62
2022-12-29T09:44:02.626Z,50.62
2022-12-29T09:45:02.686Z,50.62
2022-12-29T09:46:02.677Z,45.00
2022-12-29T09:47:02.725Z,50.62
2022-12-29T09:48:08.135Z,45.00
2022-12-29T09:49:02.668Z,39.38
2022-12-29T09:50:02.722Z,33.75
2022-12-29T09:51:02.690Z,33.75
2022-12-29T09:52:02.716Z,39.38
2022-12-29T09:53:02.733Z,45.00
2022-12-29T09:54:02.767Z,50.62
2022-12-29T09:55:07.580Z,50.62
2022-12-29T09:56:02.799Z,50.62
2022-12-29T09:57:02.765Z,50.62
2022-12-29T09:58:02.772Z,45.00
2022-12-29T09:59:02.805Z,45.00
2022-12-29T10:00:02.842Z,45.00
2022-12-29T10:01:02.931Z,50.62
2022-12-29T10:02:03.125Z,56.25
2022-12-29T10:03:02.990Z,45.00
2022-12-29T10:04:02.864Z,50.62
2022-12-29T10:05:02.923Z,50.62
2022-12-29T10:06:02.905Z,56.25
2022-12-29T10:08:02.927Z,45.00
2022-12-29T10:09:02.921Z,50.62
2022-12-29T10:10:02.935Z,61.88
2022-12-29T10:11:02.977Z,61.88
2022-12-29T10:12:03.012Z,67.50
2022-12-29T10:13:02.995Z,73.12
2022-12-29T10:14:03.029Z,61.88
2022-12-29T10:15:03.040Z,61.88
2022-12-29T10:16:03.092Z,56.25
2022-12-29T10:17:03.033Z,67.50
2022-12-29T10:18:03.088Z,78.75
2022-12-29T10:19:03.063Z,84.38
2022-12-29T10:20:03.117Z,73.12
2022-12-29T10:21:03.112Z,73.12
2022-12-29T10:22:03.094Z,78.75
2022-12-29T10:23:03.122Z,73.12
2022-12-29T10:24:03.185Z,73.12
2022-12-29T10:25:03.196Z,78.75
2022-12-29T10:26:03.213Z,78.75
2022-12-29T10:27:03.221Z,84.38
2022-12-29T10:28:03.196Z,84.38
2022-12-29T10:29:03.217Z,90.00
2022-12-29T10:30:03.241Z,90.00
2022-12-29T10:31:08.478Z,90.00
2022-12-29T10:32:03.352Z,90.00
2022-12-29T10:33:03.264Z,78.75
2022-12-29T10:34:03.302Z,78.75
2022-12-29T10:35:03.304Z,73.12
2022-12-29T10:36:03.303Z,73.12
2022-12-29T10:37:03.284Z,73.12
2022-12-29T10:38:03.290Z,78.75
2022-12-29T10:39:03.314Z,73.12
2022-12-29T10:40:03.342Z,67.50
2022-12-29T10:41:03.327Z,61.88
2022-12-29T10:42:03.352Z,61.88
2022-12-29T10:43:03.389Z,61.88
2022-12-29T10:44:03.393Z,61.88
2022-12-29T10:45:03.432Z,61.88
2022-12-29T10:46:03.470Z,61.88
2022-12-29T10:47:03.435Z,61.88
2022-12-29T10:48:03.487Z,61.88
2022-12-29T10:49:03.505Z,61.88
2022-12-29T10:50:03.697Z,61.88
2022-12-29T10:51:03.555Z,61.88
2022-12-29T10:52:03.581Z,61.88
2022-12-29T10:53:03.558Z,61.88
2022-12-29T10:54:03.585Z,61.88
2022-12-29T10:55:03.619Z,61.88
2022-12-29T10:56:03.600Z,61.88
2022-12-29T10:57:03.638Z,61.88
2022-12-29T10:58:03.625Z,61.88
2022-12-29T10:59:03.662Z,67.50
2022-12-29T11:00:03.730Z,67.50
2022-12-29T11:01:03.774Z,67.50
2022-12-29T11:02:03.852Z,67.50
2022-12-29T11:03:03.852Z,73.12
2022-12-29T11:04:03.687Z,73.12
2022-12-29T11:05:03.728Z,73.12
2022-12-29T11:06:03.756Z,73.12
2022-12-29T11:07:03.802Z,73.12
2022-12-29T11:08:03.734Z,78.75
2022-12-29T11:09:03.767Z,78.75
2022-12-29T11:10:03.936Z,78.75
2022-12-29T11:11:03.765Z,78.75
2022-12-29T11:12:03.769Z,78.75
2022-12-29T11:13:03.767Z,84.38
2022-12-29T11:14:03.755Z,84.38
2022-12-29T11:15:03.785Z,84.38
2022-12-29T11:16:03.879Z,84.38
2022-12-29T11:17:03.841Z,84.38
2022-12-29T11:18:03.862Z,84.38
2022-12-29T11:19:03.900Z,90.00
2022-12-29T11:20:03.939Z,90.00
2022-12-29T11:21:03.951Z,90.00
2022-12-29T11:22:03.954Z,90.00
2022-12-29T11:23:03.938Z,90.00
2022-12-29T11:24:03.922Z,90.00
2022-12-29T11:25:03.953Z,90.00
2022-12-29T11:26:03.943Z,90.00
2022-12-29T11:27:03.955Z,84.38
2022-12-29T11:28:03.985Z,84.38
2022-12-29T11:29:04.018Z,84.38
2022-12-29T11:30:04.047Z,84.38
2022-12-29T11:31:04.045Z,84.38
2022-12-29T11:32:04.123Z,78.75
2022-12-29T11:33:04.035Z,78.75
2022-12-29T11:34:04.063Z,78.75
2022-12-29T11:35:04.058Z,78.75
2022-12-29T11:36:04.036Z,78.75
2022-12-29T11:37:04.089Z,78.75
2022-12-29T11:38:04.101Z,78.75
2022-12-29T11:39:06.518Z,73.12
2022-12-29T11:40:04.101Z,73.12
2022-12-29T11:41:04.095Z,67.50
2022-12-29T11:42:04.127Z,56.25
2022-12-29T11:43:04.153Z,61.88
2022-12-29T11:44:04.176Z,61.88
2022-12-29T11:45:10.518Z,61.88
2022-12-29T11:46:04.281Z,61.88
2022-12-29T11:47:04.208Z,61.88
2022-12-29T11:48:04.224Z,61.88
2022-12-29T11:49:04.254Z,61.88
2022-12-29T11:50:04.305Z,61.88
2022-12-29T11:51:04.270Z,50.62
2022-12-29T11:52:04.247Z,45.00
2022-12-29T11:53:04.296Z,45.00
2022-12-29T11:54:04.352Z,45.00
2022-12-29T11:55:04.332Z,45.00
2022-12-29T11:56:04.365Z,45.00
2022-12-29T11:57:04.390Z,50.62
2022-12-29T11:58:04.370Z,56.25
2022-12-29T11:59:04.420Z,61.88
2022-12-29T12:00:04.471Z,67.50
2022-12-29T12:01:04.454Z,73.12
2022-12-29T12:02:04.624Z,61.88
2022-12-29T12:03:04.628Z,61.88
2022-12-29T12:04:04.590Z,61.88
2022-12-29T12:05:04.484Z,61.88
2022-12-29T12:06:04.524Z,61.88
2022-12-29T12:07:04.542Z,61.88
2022-12-29T12:08:04.539Z,67.50
2022-12-29T12:09:04.545Z,73.12
2022-12-29T12:10:07.877Z,84.38
2022-12-29T12:11:04.674Z,90.00
2022-12-29T12:12:04.624Z,90.00
2022-12-29T12:13:04.615Z,90.00
2022-12-29T12:14:04.599Z,95.62
2022-12-29T12:15:04.626Z,90.00
2022-12-29T12:16:04.739Z,73.12
2022-12-29T12:17:04.689Z,78.75
2022-12-29T12:18:04.714Z,73.12
2022-12-29T12:19:04.734Z,67.50
2022-12-29T12:20:04.731Z,67.50
2022-12-29T12:21:04.732Z,67.50
2022-12-29T12:22:04.714Z,73.12
2022-12-29T12:23:04.736Z,78.75
2022-12-29T12:24:04.779Z,67.50
2022-12-29T12:25:04.807Z,61.88
2022-12-29T12:26:04.812Z,67.50
2022-12-29T12:27:04.776Z,67.50
2022-12-29T12:28:04.801Z,61.88
2022-12-29T12:29:04.837Z,61.88
2022-12-29T12:30:04.825Z,61.88
2022-12-29T12:31:04.939Z,67.50
2022-12-29T12:32:04.875Z,67.50
2022-12-29T12:33:04.902Z,67.50
2022-12-29T12:34:04.889Z,67.50
2022-12-29T12:35:04.909Z,67.50
2022-12-29T12:36:04.897Z,67.50
2022-12-29T12:37:04.941Z,67.50
2022-12-29T12:38:04.968Z,67.50
2022-12-29T12:39:04.982Z,67.50
2022-12-29T12:40:05.029Z,67.50
2022-12-29T12:41:05.038Z,67.50
2022-12-29T12:42:05.057Z,67.50
2022-12-29T12:43:05.038Z,67.50
2022-12-29T12:44:05.058Z,73.12
2022-12-29T12:45:05.094Z,73.12
2022-12-29T12:46:05.268Z,73.12
2022-12-29T12:47:05.124Z,73.12
2022-12-29T12:48:05.151Z,73.12
2022-12-29T12:49:05.193Z,78.75
2022-12-29T12:50:05.402Z,90.00
2022-12-29T12:51:05.186Z,84.38
2022-12-29T12:52:05.916Z,67.50
2022-12-29T12:53:05.211Z,61.88
2022-12-29T12:54:05.413Z,50.62
2022-12-29T12:55:05.257Z,45.00
2022-12-29T12:56:05.247Z,39.38
2022-12-29T12:57:05.248Z,39.38
2022-12-29T12:58:05.282Z,39.38
2022-12-29T12:59:09.572Z,39.38
2022-12-29T13:00:05.280Z,39.38
2022-12-29T13:01:05.334Z,39.38
2022-12-29T13:02:05.454Z,39.38
2022-12-29T13:03:05.651Z,39.38
2022-12-29T13:04:05.314Z,33.75
2022-12-29T13:05:05.302Z,28.12
2022-12-29T13:06:05.303Z,22.50
2022-12-29T13:07:05.291Z,22.50
2022-12-29T13:08:05.340Z,33.75
2022-12-29T13:09:05.344Z,39.38
2022-12-29T13:10:05.360Z,39.38
2022-12-29T13:11:05.330Z,33.75
2022-12-29T13:12:05.362Z,50.62
2022-12-29T13:13:05.440Z,84.38